EDLN/MGL METAR and TAF weather

Enter ICAO airport designator
Station Type Date Time Source
EDLN METAR 2019/02/23 23:20 UTC NOAA

EDLN 232320Z AUTO 15005KT 9999 // NCD 04/M03 Q1037


Station Type Date Time Source
EDLN Decoded METAR 2019/02/23 23:20 UTC NOAA

Monchengladbach, Germany (EDLN) 51-13-49N 006-30-16E
Feb 23, 2019 - 06:20 PM EST / 2019.02.23 2320 UTC
Wind: from the SSE (150 degrees) at 6 MPH (5 KT):0
Visibility: greater than 7 mile(s):0
Temperature: 39 F (4 C)
Dew Point: 26 F (-3 C)
Relative Humidity: 60%
Pressure (altimeter): 30.62 in. Hg (1037 hPa)
ob: EDLN 232320Z AUTO 15005KT 9999 // NCD 04/M03 Q1037
cycle: 23

Station Type Date Time Source
EDLN TAF 2010/02/22 14:20 UTC NOAA

METAR EDLN 221420Z 18010G20KT 090V240 9999 SCT030 BKN045 11/06 Q0986
RMK ATIS R=


Example: see airport list